PWSweather.com
Personal Weather Stations
Station Observations
MADWEATHER
MadeiraPT

MadeiraPT

Lat: 32.735, Lon: -17.194

Elevation: 1063

Station Type: Davis VantagePro2

Latest ConditionsUpdated 6:30:02 PM GMT Monday, Aug 20, 2018
Currently Today's Max Today's Min Today's Average
Temperature 73.7°F23.2°C 77.7°F25.4°C 63.7°F17.6°C 70.6°F21.4°C
Dew Point 65.3°F18.5°C 65.8°F18.8°C 54.1°F12.3°C 61.4°F16.3°C
Winds 3.6 mph SE5.8 kmh SE 6.6 mph -10.6 kmh - - 2.1 mph 3.4 kmh
Wind Gusts 5.0 mph8.0 kmh 9.0 mph14.5 kmh - -
Humidity 75% 85% 54% 73%
Pressure 29.96 in1014.6 mb 30.03 in1016.9 mb 29.96 in1014.6 mb -
Hour Temp Dew Point Humidity Winds Wind Gusts Pressure Precip Precip Rate Daily Precip Total
06:30 PM 73.7°F23.2°C 65.3°F18.5°C 75% 3.6 mph SE5.8 kmh SE 5.0 mph8.0 kmh 29.96 in1014.6 mb - 0.00 in0.0 mm 0.00 in0.0 mm
06:20 PM 74.1°F23.4°C 65.3°F18.5°C 74% 1.6 mph SE2.6 kmh SE 2.0 mph3.2 kmh 29.96 in1014.6 mb - 0.00 in0.0 mm 0.00 in0.0 mm
06:10 PM 74.5°F23.6°C 65.7°F18.7°C 74% 1.6 mph SE2.6 kmh SE 3.0 mph4.8 kmh 29.96 in1014.6 mb - 0.00 in0.0 mm 0.00 in0.0 mm
06:00 PM 74.1°F23.4°C 65.3°F18.5°C 74% 1.9 mph SE3.1 kmh SE 3.0 mph4.8 kmh 29.96 in1014.6 mb - 0.00 in0.0 mm 0.00 in0.0 mm
05:50 PM 74.7°F23.7°C 65.5°F18.6°C 73% 3.0 mph SE4.8 kmh SE 4.0 mph6.4 kmh 29.96 in1014.6 mb - 0.00 in0.0 mm 0.00 in0.0 mm
05:40 PM 74.2°F23.4°C 65.3°F18.5°C 74% 2.6 mph SE4.2 kmh SE 4.0 mph6.4 kmh 29.96 in1014.6 mb - 0.00 in0.0 mm 0.00 in0.0 mm
05:30 PM 74.0°F23.3°C 65.6°F18.7°C 75% 2.7 mph SE4.3 kmh SE 4.0 mph6.4 kmh 29.97 in1014.9 mb - 0.00 in0.0 mm 0.00 in0.0 mm
05:20 PM 73.7°F23.2°C 64.9°F18.3°C 74% 2.1 mph SE3.4 kmh SE 4.0 mph6.4 kmh 29.97 in1014.9 mb - 0.00 in0.0 mm 0.00 in0.0 mm
05:10 PM 74.4°F23.6°C 65.5°F18.6°C 74% 3.6 mph SE5.8 kmh SE 6.0 mph9.7 kmh 29.97 in1014.9 mb - 0.00 in0.0 mm 0.00 in0.0 mm
05:00 PM 75.5°F24.2°C 65.8°F18.8°C 72% 3.6 mph SE5.8 kmh SE 5.0 mph8.0 kmh 29.97 in1014.9 mb - 0.00 in0.0 mm 0.00 in0.0 mm
04:50 PM 74.9°F23.8°C 64.9°F18.3°C 71% 3.1 mph SE5.0 kmh SE 6.0 mph9.7 kmh 29.97 in1014.9 mb - 0.00 in0.0 mm 0.00 in0.0 mm
04:40 PM 73.9°F23.3°C 64.7°F18.2°C 73% 2.8 mph SE4.5 kmh SE 5.0 mph8.0 kmh 29.98 in1015.2 mb - 0.00 in0.0 mm 0.00 in0.0 mm
04:30 PM 74.2°F23.4°C 64.2°F17.9°C 71% 3.8 mph SE6.1 kmh SE 5.0 mph8.0 kmh 29.98 in1015.2 mb - 0.00 in0.0 mm 0.00 in0.0 mm
04:20 PM 75.5°F24.2°C 65.5°F18.6°C 71% 3.9 mph SE6.3 kmh SE 6.0 mph9.7 kmh 29.98 in1015.2 mb - 0.00 in0.0 mm 0.00 in0.0 mm
04:10 PM 75.4°F24.1°C 65.4°F18.6°C 71% 4.6 mph SE7.4 kmh SE 9.0 mph14.5 kmh 29.98 in1015.2 mb - 0.00 in0.0 mm 0.00 in0.0 mm
04:00 PM 74.9°F23.8°C 65.3°F18.5°C 72% 3.7 mph SE6.0 kmh SE 6.0 mph9.7 kmh 29.98 in1015.2 mb - 0.00 in0.0 mm 0.00 in0.0 mm
03:50 PM 74.2°F23.4°C 64.2°F17.9°C 71% 2.7 mph SE4.3 kmh SE 4.0 mph6.4 kmh 29.98 in1015.2 mb - 0.00 in0.0 mm 0.00 in0.0 mm
03:40 PM 75.6°F24.2°C 63.4°F17.4°C 66% 3.4 mph SE5.5 kmh SE 6.0 mph9.7 kmh 29.98 in1015.2 mb - 0.00 in0.0 mm 0.00 in0.0 mm
03:30 PM 75.5°F24.2°C 63.8°F17.7°C 67% 3.4 mph SE5.5 kmh SE 4.0 mph6.4 kmh 29.98 in1015.2 mb - 0.00 in0.0 mm 0.00 in0.0 mm
03:20 PM 75.2°F24.0°C 64.4°F18.0°C 69% 3.0 mph SE4.8 kmh SE 6.0 mph9.7 kmh 29.99 in1015.6 mb - 0.00 in0.0 mm 0.00 in0.0 mm
03:10 PM 74.7°F23.7°C 64.7°F18.2°C 71% 4.0 mph SE6.4 kmh SE 7.0 mph11.3 kmh 29.99 in1015.6 mb - 0.00 in0.0 mm 0.00 in0.0 mm
03:00 PM 74.5°F23.6°C 64.5°F18.1°C 71% 2.9 mph SE4.7 kmh SE 3.0 mph4.8 kmh 29.99 in1015.6 mb - 0.00 in0.0 mm 0.00 in0.0 mm
02:50 PM 74.6°F23.7°C 65.0°F18.3°C 72% 5.9 mph SE9.5 kmh SE 8.0 mph12.9 kmh 29.99 in1015.6 mb - 0.00 in0.0 mm 0.00 in0.0 mm
02:40 PM 75.0°F23.9°C 65.0°F18.3°C 71% 5.3 mph SE8.5 kmh SE 7.0 mph11.3 kmh 30.00 in1015.9 mb - 0.00 in0.0 mm 0.00 in0.0 mm
02:30 PM 73.9°F23.3°C 65.1°F18.4°C 74% 4.1 mph SE6.6 kmh SE 6.0 mph9.7 kmh 30.00 in1015.9 mb - 0.00 in0.0 mm 0.00 in0.0 mm
02:20 PM 73.9°F23.3°C 64.7°F18.2°C 73% 5.1 mph SE8.2 kmh SE 9.0 mph14.5 kmh 30.00 in1015.9 mb - 0.00 in0.0 mm 0.00 in0.0 mm
02:10 PM 73.9°F23.3°C 64.3°F17.9°C 72% 6.6 mph SE10.6 kmh SE 9.0 mph14.5 kmh 30.00 in1015.9 mb - 0.00 in0.0 mm 0.00 in0.0 mm
02:00 PM 74.6°F23.7°C 64.2°F17.9°C 70% 5.3 mph SE8.5 kmh SE 9.0 mph14.5 kmh 30.00 in1015.9 mb - 0.00 in0.0 mm 0.00 in0.0 mm
01:50 PM 74.4°F23.6°C 64.3°F17.9°C 71% 4.1 mph SE6.6 kmh SE 5.0 mph8.0 kmh 30.00 in1015.9 mb - 0.00 in0.0 mm 0.00 in0.0 mm
01:40 PM 74.6°F23.7°C 64.2°F17.9°C 70% 4.8 mph SE7.7 kmh SE 7.0 mph11.3 kmh 30.00 in1015.9 mb - 0.00 in0.0 mm 0.00 in0.0 mm
01:30 PM 75.0°F23.9°C 64.6°F18.1°C 70% 5.2 mph SE8.4 kmh SE 9.0 mph14.5 kmh 30.00 in1015.9 mb - 0.00 in0.0 mm 0.00 in0.0 mm
01:20 PM 75.7°F24.3°C 65.2°F18.4°C 70% 4.4 mph SE7.1 kmh SE 6.0 mph9.7 kmh 30.00 in1015.9 mb - 0.00 in0.0 mm 0.00 in0.0 mm
01:10 PM 75.7°F24.3°C 64.8°F18.2°C 69% 4.2 mph SE6.8 kmh SE 6.0 mph9.7 kmh 30.01 in1016.3 mb - 0.00 in0.0 mm 0.00 in0.0 mm
01:00 PM 75.1°F23.9°C 63.4°F17.4°C 67% 4.0 mph SE6.4 kmh SE 5.0 mph8.0 kmh 30.01 in1016.3 mb - 0.00 in0.0 mm 0.00 in0.0 mm
12:50 PM 74.0°F23.3°C 64.4°F18.0°C 72% 4.0 mph SE6.4 kmh SE 7.0 mph11.3 kmh 30.01 in1016.3 mb - 0.00 in0.0 mm 0.00 in0.0 mm
12:40 PM 74.5°F23.6°C 64.5°F18.1°C 71% 5.1 mph SE8.2 kmh SE 7.0 mph11.3 kmh 30.02 in1016.6 mb - 0.00 in0.0 mm 0.00 in0.0 mm
12:30 PM 76.5°F24.7°C 63.8°F17.7°C 65% 2.1 mph SE3.4 kmh SE 4.0 mph6.4 kmh 30.01 in1016.3 mb - 0.00 in0.0 mm 0.00 in0.0 mm
12:20 PM 76.5°F24.7°C 60.7°F15.9°C 58% 3.7 mph SE6.0 kmh SE 6.0 mph9.7 kmh 30.02 in1016.6 mb - 0.00 in0.0 mm 0.00 in0.0 mm
12:10 PM 77.3°F25.2°C 61.4°F16.3°C 58% 3.6 mph SE5.8 kmh SE 4.0 mph6.4 kmh 30.02 in1016.6 mb - 0.00 in0.0 mm 0.00 in0.0 mm
12:00 PM 76.6°F24.8°C 60.2°F15.7°C 57% 2.8 mph SE4.5 kmh SE 5.0 mph8.0 kmh 30.02 in1016.6 mb - 0.00 in0.0 mm 0.00 in0.0 mm
11:50 AM 77.7°F25.4°C 59.7°F15.4°C 54% 1.6 mph SE2.6 kmh SE 6.0 mph9.7 kmh 30.02 in1016.6 mb - 0.00 in0.0 mm 0.00 in0.0 mm
11:40 AM 76.2°F24.6°C 61.3°F16.3°C 60% 2.7 mph SE4.3 kmh SE 4.0 mph6.4 kmh 30.02 in1016.6 mb - 0.00 in0.0 mm 0.00 in0.0 mm
11:30 AM 75.2°F24.0°C 61.7°F16.5°C 63% 3.7 mph SE6.0 kmh SE 4.0 mph6.4 kmh 30.02 in1016.6 mb - 0.00 in0.0 mm 0.00 in0.0 mm
11:20 AM 75.7°F24.3°C 63.1°F17.3°C 65% 3.6 mph SE5.8 kmh SE 6.0 mph9.7 kmh 30.02 in1016.6 mb - 0.00 in0.0 mm 0.00 in0.0 mm
11:10 AM 75.8°F24.3°C 63.6°F17.6°C 66% 4.0 mph SE6.4 kmh SE 6.0 mph9.7 kmh 30.02 in1016.6 mb - 0.00 in0.0 mm 0.00 in0.0 mm
11:00 AM 75.8°F24.3°C 61.8°F16.6°C 62% 2.6 mph SE4.2 kmh SE 3.0 mph4.8 kmh 30.02 in1016.6 mb - 0.00 in0.0 mm 0.00 in0.0 mm
10:50 AM 75.8°F24.3°C 60.5°F15.8°C 59% 2.4 mph SE3.9 kmh SE 4.0 mph6.4 kmh 30.02 in1016.6 mb - 0.00 in0.0 mm 0.00 in0.0 mm
10:40 AM 74.7°F23.7°C 61.3°F16.3°C 63% 2.0 mph SE3.2 kmh SE 3.0 mph4.8 kmh 30.02 in1016.6 mb - 0.00 in0.0 mm 0.00 in0.0 mm
10:30 AM 75.2°F24.0°C 61.8°F16.6°C 63% 1.0 mph SE1.6 kmh SE 3.0 mph4.8 kmh 30.02 in1016.6 mb - 0.00 in0.0 mm 0.00 in0.0 mm
10:20 AM 74.2°F23.4°C 61.2°F16.2°C 64% 0.2 mph SE0.3 kmh SE 3.0 mph4.8 kmh 30.02 in1016.6 mb - 0.00 in0.0 mm 0.00 in0.0 mm
10:10 AM 74.1°F23.4°C 61.6°F16.4°C 65% 1.5 mph SE2.4 kmh SE 3.0 mph4.8 kmh 30.02 in1016.6 mb - 0.00 in0.0 mm 0.00 in0.0 mm
10:00 AM 74.5°F23.6°C 62.8°F17.1°C 67% Calm Calm -- 30.02 in1016.6 mb - 0.00 in0.0 mm 0.00 in0.0 mm
09:50 AM 74.1°F23.4°C 61.6°F16.4°C 65% Calm Calm -- 30.02 in1016.6 mb - 0.00 in0.0 mm 0.00 in0.0 mm
09:40 AM 72.8°F22.7°C 62.4°F16.9°C 70% Calm Calm -- 30.02 in1016.6 mb - 0.00 in0.0 mm 0.00 in0.0 mm
09:30 AM 73.0°F22.8°C 62.2°F16.8°C 69% 1.9 mph SE3.1 kmh SE 3.0 mph4.8 kmh 30.02 in1016.6 mb - 0.00 in0.0 mm 0.00 in0.0 mm
09:20 AM 73.0°F22.8°C 62.6°F17.0°C 70% Calm Calm -- 30.02 in1016.6 mb - 0.00 in0.0 mm 0.00 in0.0 mm
09:10 AM 73.1°F22.8°C 62.8°F17.1°C 70% 1.7 mph SE2.7 kmh SE 3.0 mph4.8 kmh 30.02 in1016.6 mb - 0.00 in0.0 mm 0.00 in0.0 mm
09:00 AM 73.2°F22.9°C 62.0°F16.7°C 68% Calm Calm -- 30.02 in1016.6 mb - 0.00 in0.0 mm 0.00 in0.0 mm
08:50 AM 72.8°F22.7°C 61.2°F16.2°C 67% Calm Calm -- 30.01 in1016.3 mb - 0.00 in0.0 mm 0.00 in0.0 mm
08:40 AM 72.1°F22.3°C 59.2°F15.1°C 64% Calm Calm -- 30.02 in1016.6 mb - 0.00 in0.0 mm 0.00 in0.0 mm
08:30 AM 71.9°F22.2°C 58.7°F14.8°C 63% Calm Calm -- 30.02 in1016.6 mb - 0.00 in0.0 mm 0.00 in0.0 mm
08:20 AM 71.3°F21.8°C 58.9°F14.9°C 65% Calm Calm -- 30.02 in1016.6 mb - 0.00 in0.0 mm 0.00 in0.0 mm
08:10 AM 70.1°F21.2°C 58.2°F14.6°C 66% Calm Calm -- 30.02 in1016.6 mb - 0.00 in0.0 mm 0.00 in0.0 mm
08:00 AM 69.5°F20.8°C 57.6°F14.2°C 66% Calm Calm -- 30.01 in1016.3 mb - 0.00 in0.0 mm 0.00 in0.0 mm
07:50 AM 68.3°F20.2°C 56.5°F13.6°C 66% 2.1 mph SE3.4 kmh SE 3.0 mph4.8 kmh 30.01 in1016.3 mb - 0.00 in0.0 mm 0.00 in0.0 mm
07:40 AM 67.0°F19.4°C 55.3°F12.9°C 66% 2.0 mph SE3.2 kmh SE 3.0 mph4.8 kmh 30.01 in1016.3 mb - 0.00 in0.0 mm 0.00 in0.0 mm
07:30 AM 66.0°F18.9°C 56.3°F13.5°C 71% 2.4 mph SE3.9 kmh SE 3.0 mph4.8 kmh 30.00 in1015.9 mb - 0.00 in0.0 mm 0.00 in0.0 mm
07:20 AM 64.8°F18.2°C 56.0°F13.3°C 73% 1.7 mph SE2.7 kmh SE 3.0 mph4.8 kmh 30.00 in1015.9 mb - 0.00 in0.0 mm 0.00 in0.0 mm
07:10 AM 64.2°F17.9°C 55.4°F13.0°C 73% 2.4 mph SE3.9 kmh SE 4.0 mph6.4 kmh 30.00 in1015.9 mb - 0.00 in0.0 mm 0.00 in0.0 mm
07:00 AM 63.7°F17.6°C 54.1°F12.3°C 71% 1.7 mph SE2.7 kmh SE 2.0 mph3.2 kmh 29.99 in1015.6 mb - 0.00 in0.0 mm 0.00 in0.0 mm
06:50 AM 63.9°F17.7°C 56.5°F13.6°C 77% 3.0 mph SE4.8 kmh SE 4.0 mph6.4 kmh 29.99 in1015.6 mb - 0.00 in0.0 mm 0.00 in0.0 mm
06:40 AM 63.8°F17.7°C 57.9°F14.4°C 81% 2.8 mph SE4.5 kmh SE 4.0 mph6.4 kmh 29.99 in1015.6 mb - 0.00 in0.0 mm 0.00 in0.0 mm
06:30 AM 63.7°F17.6°C 57.4°F14.1°C 80% 3.0 mph SE4.8 kmh SE 4.0 mph6.4 kmh 29.99 in1015.6 mb - 0.00 in0.0 mm 0.00 in0.0 mm
06:20 AM 63.9°F17.7°C 59.3°F15.2°C 85% 2.9 mph SE4.7 kmh SE 4.0 mph6.4 kmh 29.99 in1015.6 mb - 0.00 in0.0 mm 0.00 in0.0 mm
06:10 AM 63.8°F17.7°C 58.9°F14.9°C 84% 2.0 mph SE3.2 kmh SE 3.0 mph4.8 kmh 29.99 in1015.6 mb - 0.00 in0.0 mm 0.00 in0.0 mm
06:00 AM 64.0°F17.8°C 59.1°F15.1°C 84% 2.5 mph SE4.0 kmh SE 3.0 mph4.8 kmh 30.00 in1015.9 mb - 0.00 in0.0 mm 0.00 in0.0 mm
05:50 AM 64.2°F17.9°C 59.6°F15.3°C 85% 2.4 mph SE3.9 kmh SE 3.0 mph4.8 kmh 30.00 in1015.9 mb - 0.00 in0.0 mm 0.00 in0.0 mm
05:40 AM 64.3°F17.9°C 59.7°F15.4°C 85% 2.5 mph SE4.0 kmh SE 4.0 mph6.4 kmh 30.00 in1015.9 mb - 0.00 in0.0 mm 0.00 in0.0 mm
05:30 AM 64.5°F18.1°C 59.6°F15.3°C 84% 2.7 mph SE4.3 kmh SE 4.0 mph6.4 kmh 30.00 in1015.9 mb - 0.00 in0.0 mm 0.00 in0.0 mm
05:20 AM 64.6°F18.1°C 59.9°F15.5°C 85% 2.9 mph SE4.7 kmh SE 3.0 mph4.8 kmh 30.00 in1015.9 mb - 0.00 in0.0 mm 0.00 in0.0 mm
05:10 AM 64.4°F18.0°C 59.5°F15.3°C 84% 0.3 mph SE0.5 kmh SE 2.0 mph3.2 kmh 30.00 in1015.9 mb - 0.00 in0.0 mm 0.00 in0.0 mm
05:00 AM 64.3°F17.9°C 59.4°F15.2°C 84% 2.1 mph SE3.4 kmh SE 3.0 mph4.8 kmh 30.00 in1015.9 mb - 0.00 in0.0 mm 0.00 in0.0 mm
04:50 AM 64.2°F17.9°C 58.9°F14.9°C 83% 1.8 mph SE2.9 kmh SE 2.0 mph3.2 kmh 29.99 in1015.6 mb - 0.00 in0.0 mm 0.00 in0.0 mm
04:40 AM 64.3°F17.9°C 58.7°F14.8°C 82% 1.9 mph SE3.1 kmh SE 3.0 mph4.8 kmh 29.99 in1015.6 mb - 0.00 in0.0 mm 0.00 in0.0 mm
04:30 AM 64.6°F18.1°C 59.0°F15.0°C 82% 0.1 mph SE0.2 kmh SE -- 29.99 in1015.6 mb - 0.00 in0.0 mm 0.00 in0.0 mm
04:20 AM 64.9°F18.3°C 59.3°F15.2°C 82% Calm Calm -- 29.99 in1015.6 mb - 0.00 in0.0 mm 0.00 in0.0 mm
04:10 AM 65.2°F18.4°C 59.5°F15.3°C 82% Calm Calm -- 29.99 in1015.6 mb - 0.00 in0.0 mm 0.00 in0.0 mm
04:00 AM 65.0°F18.3°C 59.7°F15.4°C 83% 3.5 mph SSE5.6 kmh SSE 4.0 mph6.4 kmh 30.00 in1015.9 mb - 0.00 in0.0 mm 0.00 in0.0 mm
03:50 AM 64.7°F18.2°C 59.1°F15.1°C 82% Calm Calm -- 30.00 in1015.9 mb - 0.00 in0.0 mm 0.00 in0.0 mm
03:40 AM 64.7°F18.2°C 58.7°F14.8°C 81% 0.5 mph SSE0.8 kmh SSE 2.0 mph3.2 kmh 30.00 in1015.9 mb - 0.00 in0.0 mm 0.00 in0.0 mm
03:30 AM 64.8°F18.2°C 59.1°F15.1°C 82% Calm Calm -- 30.00 in1015.9 mb - 0.00 in0.0 mm 0.00 in0.0 mm
03:20 AM 64.7°F18.2°C 58.7°F14.8°C 81% 0.4 mph SSE0.6 kmh SSE 1.0 mph1.6 kmh 30.00 in1015.9 mb - 0.00 in0.0 mm 0.00 in0.0 mm
03:10 AM 64.9°F18.3°C 58.6°F14.8°C 80% 0.8 mph SSE1.3 kmh SSE 3.0 mph4.8 kmh 30.00 in1015.9 mb - 0.00 in0.0 mm 0.00 in0.0 mm
03:00 AM 65.2°F18.4°C 58.5°F14.7°C 79% 1.0 mph SSE1.6 kmh SSE 2.0 mph3.2 kmh 30.00 in1015.9 mb - 0.00 in0.0 mm 0.00 in0.0 mm
02:50 AM 65.6°F18.7°C 59.6°F15.3°C 81% Calm Calm -- 30.00 in1015.9 mb - 0.00 in0.0 mm 0.00 in0.0 mm
02:40 AM 65.6°F18.7°C 59.6°F15.3°C 81% 0.6 mph SSE1.0 kmh SSE 5.0 mph8.0 kmh 30.00 in1015.9 mb - 0.00 in0.0 mm 0.00 in0.0 mm
02:30 AM 65.8°F18.8°C 59.5°F15.3°C 80% 0.3 mph SSE0.5 kmh SSE 2.0 mph3.2 kmh 30.00 in1015.9 mb - 0.00 in0.0 mm 0.00 in0.0 mm
02:20 AM 66.1°F18.9°C 59.7°F15.4°C 80% 0.7 mph SSE1.1 kmh SSE 3.0 mph4.8 kmh 30.00 in1015.9 mb - 0.00 in0.0 mm 0.00 in0.0 mm
02:10 AM 66.4°F19.1°C 59.7°F15.4°C 79% 0.3 mph SSE0.5 kmh SSE 1.0 mph1.6 kmh 30.00 in1015.9 mb - 0.00 in0.0 mm 0.00 in0.0 mm
02:00 AM 66.9°F19.4°C 60.1°F15.6°C 79% Calm Calm 1.0 mph1.6 kmh 30.01 in1016.3 mb - 0.00 in0.0 mm 0.00 in0.0 mm
01:50 AM 67.1°F19.5°C 60.0°F15.6°C 78% 0.4 mph SSE0.6 kmh SSE 3.0 mph4.8 kmh 30.01 in1016.3 mb - 0.00 in0.0 mm 0.00 in0.0 mm
01:40 AM 67.3°F19.6°C 60.2°F15.7°C 78% 0.4 mph SSE0.6 kmh SSE 3.0 mph4.8 kmh 30.01 in1016.3 mb - 0.00 in0.0 mm 0.00 in0.0 mm
01:30 AM 67.4°F19.7°C 60.3°F15.7°C 78% 0.5 mph SSE0.8 kmh SSE 2.0 mph3.2 kmh 30.02 in1016.6 mb - 0.00 in0.0 mm 0.00 in0.0 mm
01:20 AM 67.6°F19.8°C 60.5°F15.8°C 78% 1.6 mph SSE2.6 kmh SSE 2.0 mph3.2 kmh 30.02 in1016.6 mb - 0.00 in0.0 mm 0.00 in0.0 mm
01:10 AM 67.7°F19.8°C 60.6°F15.9°C 78% Calm Calm -- 30.02 in1016.6 mb - 0.00 in0.0 mm 0.00 in0.0 mm
01:00 AM 67.7°F19.8°C 61.0°F16.1°C 79% 1.5 mph SSE2.4 kmh SSE 2.0 mph3.2 kmh 30.02 in1016.6 mb - 0.00 in0.0 mm 0.00 in0.0 mm
12:50 AM 67.7°F19.8°C 61.0°F16.1°C 79% Calm Calm -- 30.03 in1016.9 mb - 0.00 in0.0 mm 0.00 in0.0 mm
12:40 AM 67.7°F19.8°C 61.0°F16.1°C 79% Calm Calm -- 30.03 in1016.9 mb - 0.00 in0.0 mm 0.00 in0.0 mm
12:30 AM 67.6°F19.8°C 61.2°F16.2°C 80% Calm Calm -- 30.03 in1016.9 mb - 0.00 in0.0 mm 0.00 in0.0 mm
12:20 AM 67.3°F19.6°C 60.9°F16.1°C 80% Calm Calm -- 30.03 in1016.9 mb - 0.00 in0.0 mm 0.00 in0.0 mm
12:10 AM 67.2°F19.6°C 60.4°F15.8°C 79% Calm Calm -- 30.03 in1016.9 mb - 0.00 in0.0 mm 0.00 in0.0 mm
12:00 AM 67.0°F19.4°C 60.6°F15.9°C 80% Calm Calm -- 30.03 in1016.9 mb - 0.00 in0.0 mm 0.00 in0.0 mm